createdAt,value
2023-01-27T00:01:08.592Z,101477.10
2023-01-27T00:03:35.670Z,101483.48
2023-01-27T00:06:05.902Z,101484.52
2023-01-27T00:08:32.705Z,101481.77
2023-01-27T00:11:19.628Z,101486.40
2023-01-27T00:13:46.569Z,101480.43
2023-01-27T00:16:13.663Z,101478.58
2023-01-27T00:18:40.645Z,101470.68
2023-01-27T00:21:26.145Z,101471.25
2023-01-27T00:24:11.684Z,101475.80
2023-01-27T00:26:38.785Z,101474.96
2023-01-27T00:29:05.617Z,101469.10
2023-01-27T00:31:51.564Z,101476.47
2023-01-27T00:34:18.761Z,101479.54
2023-01-27T00:36:45.524Z,101484.31
2023-01-27T00:39:14.192Z,101482.22
2023-01-27T00:41:43.492Z,101481.55
2023-01-27T00:44:12.591Z,101478.33
2023-01-27T00:46:40.906Z,101476.99
2023-01-27T00:49:09.368Z,101471.36
2023-01-27T00:51:37.516Z,101470.88
2023-01-27T00:54:04.874Z,101470.57
2023-01-27T00:56:31.942Z,101471.76
2023-01-27T00:58:58.699Z,101475.72
2023-01-27T01:01:25.591Z,101476.91
2023-01-27T01:03:52.713Z,101478.31
2023-01-27T01:06:19.834Z,101473.85
2023-01-27T01:08:48.230Z,101469.92
2023-01-27T01:11:16.698Z,101472.02
2023-01-27T01:13:44.940Z,101470.52
2023-01-27T01:16:22.107Z,101468.48
2023-01-27T01:18:49.206Z,101463.17
2023-01-27T01:21:16.096Z,101460.78
2023-01-27T01:23:45.420Z,101467.15
2023-01-27T01:26:14.221Z,101468.05
2023-01-27T01:28:41.129Z,101462.58
2023-01-27T01:31:10.260Z,101462.75
2023-01-27T01:33:37.190Z,101460.85
2023-01-27T01:36:08.804Z,101462.89
2023-01-27T01:38:36.432Z,101467.54
2023-01-27T01:41:04.666Z,101462.89
2023-01-27T01:43:31.636Z,101458.94
2023-01-27T01:45:59.480Z,101455.66
2023-01-27T01:48:49.529Z,101456.50
2023-01-27T01:51:19.713Z,101448.25
2023-01-27T01:53:53.628Z,101444.98
2023-01-27T01:56:26.431Z,101436.60
2023-01-27T01:58:54.992Z,101436.11
2023-01-27T02:01:24.551Z,101434.60
2023-01-27T02:03:54.611Z,101428.24
2023-01-27T02:06:21.178Z,101420.50
2023-01-27T02:08:48.702Z,101415.17
2023-01-27T02:11:15.762Z,101413.98
2023-01-27T02:13:42.711Z,101409.52
2023-01-27T02:23:57.235Z,101390.45
2023-01-27T02:26:32.674Z,101388.89
2023-01-27T02:29:06.353Z,101379.59
2023-01-27T02:31:34.954Z,101374.79
2023-01-27T02:34:09.333Z,101370.70
2023-01-27T02:36:58.218Z,101367.95
2023-01-27T02:39:31.501Z,101364.21
2023-01-27T02:41:59.578Z,101367.86
2023-01-27T02:44:27.889Z,101367.70
2023-01-27T02:46:56.558Z,101365.64
2023-01-27T02:49:25.125Z,101362.55
2023-01-27T02:51:53.523Z,101364.61
2023-01-27T02:54:25.266Z,101366.87
2023-01-27T02:56:53.576Z,101371.02
2023-01-27T02:59:24.495Z,101374.33
2023-01-27T03:01:53.056Z,101366.27
2023-01-27T03:04:21.385Z,101363.69
2023-01-27T03:06:49.939Z,101362.13
2023-01-27T03:09:18.939Z,101354.76
2023-01-27T03:12:06.365Z,101357.33
2023-01-27T03:14:55.228Z,101361.45
2023-01-27T03:17:42.134Z,101370.04
2023-01-27T03:20:11.482Z,101370.75
2023-01-27T03:22:39.620Z,101369.05
2023-01-27T03:25:08.920Z,101365.12
2023-01-27T03:27:37.209Z,101363.05
2023-01-27T03:30:38.159Z,101369.95
2023-01-27T03:33:15.615Z,101376.84
2023-01-27T03:36:23.551Z,101371.16
2023-01-27T03:39:11.362Z,101372.34
2023-01-27T03:41:58.285Z,101373.86
2023-01-27T03:44:46.524Z,101375.55
2023-01-27T03:47:14.651Z,101369.02
2023-01-27T03:49:42.945Z,101369.21
2023-01-27T03:52:11.067Z,101366.83
2023-01-27T03:54:39.777Z,101365.84
2023-01-27T03:57:08.445Z,101375.12
2023-01-27T03:59:37.910Z,101383.70
2023-01-27T04:02:25.292Z,101384.88
2023-01-27T04:05:13.033Z,101389.16
2023-01-27T04:07:43.867Z,101384.86
2023-01-27T04:10:12.020Z,101382.10
2023-01-27T04:12:41.235Z,101380.73
2023-01-27T04:15:09.812Z,101380.73
2023-01-27T04:17:42.153Z,101382.63
2023-01-27T04:20:11.566Z,101385.05
2023-01-27T04:22:40.343Z,101383.99
2023-01-27T04:25:11.633Z,101384.33
2023-01-27T04:27:43.584Z,101384.14
2023-01-27T04:30:12.345Z,101387.91
2023-01-27T04:32:40.455Z,101388.42
2023-01-27T04:35:08.996Z,101390.14
2023-01-27T04:37:37.786Z,101391.67
2023-01-27T04:40:07.322Z,101395.96
2023-01-27T04:42:35.566Z,101400.41
2023-01-27T04:45:04.504Z,101412.27
2023-01-27T04:47:33.250Z,101410.72
2023-01-27T04:50:01.405Z,101406.25
2023-01-27T04:52:29.902Z,101403.16
2023-01-27T04:54:58.285Z,101400.61
2023-01-27T04:57:28.144Z,101400.64
2023-01-27T04:59:56.581Z,101396.54
2023-01-27T06:08:35.027Z,101416.20
2023-01-27T06:11:01.867Z,101420.83
2023-01-27T06:13:29.063Z,101422.36
2023-01-27T06:15:56.137Z,101424.24
2023-01-27T06:18:23.471Z,101421.49
2023-01-27T06:20:50.216Z,101418.56
2023-01-27T06:23:17.771Z,101423.70
2023-01-27T06:25:46.061Z,101423.17
2023-01-27T06:28:27.153Z,101428.14
2023-01-27T06:30:56.655Z,101425.73
2023-01-27T06:33:23.699Z,101425.38
2023-01-27T06:36:00.821Z,101427.06
2023-01-27T06:38:27.459Z,101421.39
2023-01-27T06:40:56.456Z,101420.87
2023-01-27T06:43:24.348Z,101415.90
2023-01-27T06:45:51.571Z,101412.12
2023-01-27T06:48:18.636Z,101411.74
2023-01-27T06:50:45.315Z,101409.52
2023-01-27T06:53:12.107Z,101408.30
2023-01-27T06:55:41.077Z,101403.48
2023-01-27T06:58:09.089Z,101402.43
2023-01-27T07:00:38.774Z,101402.75
2023-01-27T07:03:05.907Z,101406.86
2023-01-27T07:05:33.155Z,101412.20
2023-01-27T07:07:59.986Z,101408.59
2023-01-27T07:10:26.923Z,101413.04
2023-01-27T07:13:04.395Z,101413.05
2023-01-27T07:15:31.593Z,101411.84
2023-01-27T07:17:59.861Z,101408.23
2023-01-27T07:20:28.238Z,101403.39
2023-01-27T07:23:03.167Z,101400.27
2023-01-27T07:25:33.608Z,101400.23
2023-01-27T07:28:00.742Z,101405.17
2023-01-27T07:30:34.916Z,101404.99
2023-01-27T07:33:08.988Z,101405.33
2023-01-27T07:35:36.623Z,101397.73
2023-01-27T07:38:04.044Z,101393.41
2023-01-27T07:40:30.715Z,101386.85
2023-01-27T07:42:58.766Z,101389.38
2023-01-27T07:45:27.496Z,101389.02
2023-01-27T07:48:00.387Z,101379.70
2023-01-27T07:50:27.176Z,101377.24
2023-01-27T07:52:53.798Z,101369.66
2023-01-27T07:55:20.382Z,101362.95
2023-01-27T07:57:47.095Z,101359.64
2023-01-27T08:00:15.141Z,101359.41
2023-01-27T08:02:43.043Z,101355.56
2023-01-27T08:05:09.651Z,101355.15
2023-01-27T08:07:36.834Z,101355.97
2023-01-27T08:10:04.027Z,101356.46
2023-01-27T08:12:31.192Z,101356.07
2023-01-27T08:14:58.820Z,101347.95
2023-01-27T08:17:28.717Z,101350.30
2023-01-27T08:19:55.782Z,101352.98
2023-01-27T08:22:24.571Z,101353.92
2023-01-27T08:24:51.464Z,101352.66
2023-01-27T08:27:18.361Z,101340.55
2023-01-27T08:29:45.026Z,101327.07
2023-01-27T08:32:14.173Z,101321.14
2023-01-27T08:34:42.737Z,101315.36
2023-01-27T08:37:09.368Z,101314.74
2023-01-27T08:39:36.820Z,101308.44
2023-01-27T08:42:04.438Z,101306.43
2023-01-27T08:44:31.299Z,101298.95
2023-01-27T08:46:57.942Z,101297.14
2023-01-27T08:49:24.980Z,101285.19
2023-01-27T08:51:51.708Z,101279.29
2023-01-27T08:54:18.441Z,101271.13
2023-01-27T08:56:45.039Z,101269.31
2023-01-27T08:59:11.664Z,101270.90
2023-01-27T09:01:38.873Z,101270.65
2023-01-27T09:04:10.390Z,101265.39
2023-01-27T09:06:38.644Z,101260.13
2023-01-27T09:09:10.971Z,101257.81
2023-01-27T09:11:47.633Z,101258.72
2023-01-27T09:14:14.573Z,101254.61
2023-01-27T09:16:41.252Z,101256.05
2023-01-27T09:19:08.229Z,101253.90
2023-01-27T09:21:35.229Z,101263.26
2023-01-27T09:24:02.057Z,101260.75
2023-01-27T09:26:29.762Z,101253.58
2023-01-27T09:28:56.710Z,101255.00
2023-01-27T09:31:25.790Z,101249.88
2023-01-27T09:33:52.496Z,101238.89
2023-01-27T09:36:20.745Z,101237.50
2023-01-27T09:38:55.712Z,101227.02
2023-01-27T09:41:59.975Z,101218.81
2023-01-27T09:44:38.954Z,101214.22
2023-01-27T09:47:15.915Z,101210.93
2023-01-27T09:50:09.331Z,101213.02
2023-01-27T09:52:57.610Z,101203.42
2023-01-27T09:55:45.036Z,101201.48
2023-01-27T09:58:24.775Z,101195.77
2023-01-27T12:12:32.793Z,101060.25
2023-01-27T12:15:02.546Z,101060.54
2023-01-27T12:17:35.590Z,101055.54
2023-01-27T12:20:06.347Z,101058.13
2023-01-27T12:22:38.639Z,101056.59
2023-01-27T12:25:07.733Z,101061.94
2023-01-27T12:27:40.561Z,101062.22
2023-01-27T12:30:16.066Z,101061.01
2023-01-27T12:32:47.161Z,101058.48
2023-01-27T12:35:33.776Z,101055.05
2023-01-27T12:38:26.698Z,101054.17
2023-01-27T12:40:59.440Z,101059.73
2023-01-27T12:43:26.171Z,101058.45
2023-01-27T12:46:28.575Z,101061.59
2023-01-27T12:49:07.573Z,101061.15
2023-01-27T12:51:40.471Z,101052.16
2023-01-27T12:54:21.298Z,101047.88
2023-01-27T12:56:52.494Z,101051.70
2023-01-27T12:59:20.965Z,101057.25
2023-01-27T13:02:18.567Z,101058.12
2023-01-27T13:04:53.841Z,101056.05
2023-01-27T13:07:24.686Z,101058.45
2023-01-27T13:10:03.368Z,101056.04
2023-01-27T13:12:34.907Z,101060.54
2023-01-27T13:15:21.235Z,101057.59
2023-01-27T13:17:55.225Z,101060.90
2023-01-27T13:20:26.041Z,101065.42
2023-01-27T13:22:53.906Z,101068.94
2023-01-27T13:25:22.987Z,101070.00
2023-01-27T13:27:53.024Z,101071.23
2023-01-27T13:30:26.862Z,101079.07
2023-01-27T13:32:55.528Z,101082.41
2023-01-27T13:35:37.679Z,101086.63
2023-01-27T13:38:13.688Z,101081.01
2023-01-27T13:40:45.159Z,101081.96
2023-01-27T13:43:19.995Z,101087.23
2023-01-27T13:46:20.972Z,101089.23
2023-01-27T13:48:54.530Z,101094.03
2023-01-27T13:51:24.355Z,101094.15
2023-01-27T13:54:03.655Z,101092.77
2023-01-27T13:56:41.728Z,101093.58
2023-01-27T13:59:08.372Z,101094.76
2023-01-27T14:02:08.060Z,101099.38
2023-01-27T14:04:37.321Z,101098.00
2023-01-27T14:07:07.946Z,101102.44
2023-01-27T14:09:50.206Z,101098.71
2023-01-27T14:12:21.715Z,101100.54
2023-01-27T14:14:58.209Z,101092.35
2023-01-27T14:17:34.989Z,101094.21
2023-01-27T14:20:04.947Z,101091.10
2023-01-27T14:22:34.655Z,101095.04
2023-01-27T14:25:07.987Z,101093.80
2023-01-27T14:27:37.155Z,101094.64
2023-01-27T14:30:04.149Z,101090.96
2023-01-27T14:32:31.072Z,101089.80
2023-01-27T14:34:57.688Z,101083.98
2023-01-27T14:37:27.947Z,101083.20
2023-01-27T14:40:00.317Z,101082.58
2023-01-27T14:42:26.866Z,101086.74
2023-01-27T14:45:15.950Z,101086.89
2023-01-27T14:47:45.693Z,101087.83
2023-01-27T14:50:21.589Z,101090.85
2023-01-27T14:52:51.298Z,101094.98
2023-01-27T14:55:18.129Z,101097.40
2023-01-27T14:57:47.247Z,101095.85
2023-01-27T15:00:20.642Z,101090.30
2023-01-27T15:03:01.439Z,101090.63
2023-01-27T15:05:37.677Z,101093.90
2023-01-27T15:08:16.905Z,101088.70
2023-01-27T15:10:51.271Z,101090.50
2023-01-27T15:13:50.510Z,101091.12
2023-01-27T15:16:19.536Z,101091.61
2023-01-27T15:18:53.734Z,101093.80
2023-01-27T15:21:32.428Z,101089.91
2023-01-27T15:24:17.986Z,101090.36
2023-01-27T15:26:45.338Z,101086.36
2023-01-27T15:29:14.888Z,101082.52
2023-01-27T15:31:42.664Z,101086.61
2023-01-27T15:34:19.511Z,101094.67
2023-01-27T15:37:02.501Z,101093.73
2023-01-27T15:39:41.004Z,101088.83
2023-01-27T15:42:12.319Z,101091.17
2023-01-27T15:44:40.289Z,101093.50
2023-01-27T15:47:11.470Z,101093.23
2023-01-27T15:49:42.466Z,101088.42
2023-01-27T15:52:12.030Z,101087.98
2023-01-27T15:54:39.693Z,101085.29
2023-01-27T15:57:06.289Z,101086.73
2023-01-27T15:59:49.851Z,101086.63
2023-01-27T16:02:27.371Z,101087.60
2023-01-27T18:15:33.326Z,101090.27
2023-01-27T18:18:01.233Z,101094.63
2023-01-27T18:20:32.034Z,101086.94
2023-01-27T18:22:58.796Z,101084.89
2023-01-27T18:25:25.382Z,101082.65
2023-01-27T18:27:53.306Z,101081.39
2023-01-27T18:30:20.952Z,101076.34
2023-01-27T18:32:53.297Z,101073.33
2023-01-27T18:35:25.780Z,101072.09
2023-01-27T18:37:57.848Z,101071.38
2023-01-27T18:40:35.002Z,101072.02
2023-01-27T18:43:03.499Z,101072.73
2023-01-27T18:45:30.257Z,101073.64
2023-01-27T18:47:57.158Z,101075.04
2023-01-27T18:50:25.029Z,101076.32
2023-01-27T18:52:51.961Z,101074.53
2023-01-27T18:55:22.484Z,101075.33
2023-01-27T18:57:53.646Z,101071.30
2023-01-27T19:00:38.585Z,101069.50
2023-01-27T19:03:07.205Z,101069.46
2023-01-27T19:05:35.714Z,101068.02
2023-01-27T19:08:02.949Z,101065.41
2023-01-27T19:10:31.968Z,101061.77
2023-01-27T19:13:00.110Z,101063.13
2023-01-27T19:15:28.443Z,101062.77
2023-01-27T19:17:56.504Z,101059.82
2023-01-27T19:20:25.144Z,101053.09
2023-01-27T19:22:52.773Z,101043.59
2023-01-27T19:25:20.142Z,101040.85
2023-01-27T19:27:49.795Z,101037.94
2023-01-27T19:30:19.534Z,101032.77
2023-01-27T19:32:46.067Z,101034.84
2023-01-27T19:35:13.485Z,101033.48
2023-01-27T19:37:41.868Z,101031.59
2023-01-27T19:40:16.116Z,101031.98
2023-01-27T19:42:43.895Z,101031.66
2023-01-27T19:45:16.210Z,101039.23
2023-01-27T19:47:46.270Z,101044.25
2023-01-27T19:50:18.851Z,101044.60
2023-01-27T19:52:46.123Z,101045.30
2023-01-27T19:55:14.534Z,101050.98
2023-01-27T19:57:42.527Z,101053.23
2023-01-27T20:00:23.740Z,101049.65
2023-01-27T20:02:50.402Z,101048.82
2023-01-27T20:05:17.359Z,101050.75
2023-01-27T20:07:44.524Z,101048.04
2023-01-27T20:10:32.089Z,101051.36
2023-01-27T20:13:00.468Z,101046.56
2023-01-27T20:15:29.281Z,101037.78
2023-01-27T20:17:56.714Z,101041.05
2023-01-27T20:20:24.338Z,101036.76
2023-01-27T20:22:52.222Z,101037.45
2023-01-27T20:25:20.590Z,101038.33
2023-01-27T20:27:49.602Z,101041.81
2023-01-27T20:30:17.943Z,101043.19
2023-01-27T20:32:45.166Z,101042.52
2023-01-27T20:35:13.145Z,101048.91
2023-01-27T20:37:41.000Z,101051.70
2023-01-27T20:40:09.232Z,101053.80
2023-01-27T20:42:38.618Z,101052.13
2023-01-27T20:45:05.662Z,101048.22
2023-01-27T20:47:32.621Z,101043.59
2023-01-27T20:50:00.727Z,101049.80
2023-01-27T20:52:27.824Z,101049.47
2023-01-27T20:54:54.477Z,101055.31
2023-01-27T20:57:23.469Z,101056.18
2023-01-27T20:59:50.371Z,101054.33
2023-01-27T21:02:17.063Z,101055.88
2023-01-27T21:04:44.059Z,101052.63
2023-01-27T21:07:10.860Z,101050.94
2023-01-27T21:09:37.536Z,101049.07
2023-01-27T21:12:04.403Z,101050.14
2023-01-27T21:14:33.437Z,101055.34
2023-01-27T21:17:00.292Z,101049.84
2023-01-27T21:19:26.950Z,101051.79
2023-01-27T21:21:53.734Z,101044.59
2023-01-27T21:24:20.445Z,101042.04
2023-01-27T21:26:47.363Z,101034.88
2023-01-27T21:29:14.162Z,101031.47
2023-01-27T21:31:41.238Z,101027.89
2023-01-27T21:34:10.328Z,101025.67
2023-01-27T21:36:37.276Z,101021.40
2023-01-27T21:39:04.476Z,101020.56
2023-01-27T21:41:50.330Z,101022.84
2023-01-27T21:44:40.303Z,101026.48
2023-01-27T21:47:08.680Z,101019.46
2023-01-27T21:49:56.944Z,101016.62
2023-01-27T21:52:25.123Z,101013.91
2023-01-27T21:54:51.990Z,101013.42
2023-01-27T21:57:18.652Z,101010.02
2023-01-27T21:59:45.397Z,101005.39
2023-01-27T22:02:15.553Z,101008.70
2023-01-27T22:04:42.643Z,101006.13
2023-01-27T22:07:10.837Z,101004.62
2023-01-27T22:09:38.240Z,101007.05
2023-01-27T22:12:05.926Z,101007.08
2023-01-27T22:14:33.576Z,101003.83
2023-01-27T22:17:00.427Z,101000.10
2023-01-27T22:19:27.252Z,100992.21
2023-01-27T22:21:54.776Z,100992.27
2023-01-27T22:24:24.715Z,100992.30
2023-01-27T22:26:51.364Z,100992.31
2023-01-27T22:29:18.275Z,100990.81
2023-01-27T22:31:44.824Z,100994.96
2023-01-27T22:34:11.605Z,100995.17
2023-01-27T22:36:38.390Z,100989.02
2023-01-27T22:39:04.983Z,100985.09
2023-01-27T22:41:32.518Z,100990.42
2023-01-27T22:43:59.363Z,100988.22
2023-01-27T22:46:26.119Z,100987.04
2023-01-27T22:48:54.991Z,100985.17
2023-01-27T22:51:21.863Z,100979.17
2023-01-27T22:53:48.533Z,100978.48
2023-01-27T22:56:15.922Z,100972.48
2023-01-27T22:58:42.673Z,100972.52
2023-01-27T23:01:09.392Z,100972.39
2023-01-27T23:03:36.085Z,100971.73
2023-01-27T23:06:04.498Z,100976.03
2023-01-27T23:08:32.769Z,100977.60
2023-01-27T23:11:00.932Z,100978.13
2023-01-27T23:13:28.978Z,100974.71
2023-01-27T23:15:56.391Z,100970.59
2023-01-27T23:18:23.830Z,100972.17
2023-01-27T23:20:50.653Z,100975.27
2023-01-27T23:23:18.691Z,100975.65
2023-01-27T23:25:46.941Z,100979.98
2023-01-27T23:28:17.137Z,100976.22
2023-01-27T23:30:47.572Z,100974.02
2023-01-27T23:33:16.697Z,100969.91
2023-01-27T23:35:43.551Z,100967.54
2023-01-27T23:38:22.711Z,100969.12
2023-01-27T23:40:53.955Z,100969.67
2023-01-27T23:43:21.724Z,100967.66
2023-01-27T23:45:52.186Z,100970.25
2023-01-27T23:48:19.545Z,100972.33
2023-01-27T23:50:46.283Z,100972.02
2023-01-27T23:53:13.251Z,100967.75
2023-01-27T23:55:39.849Z,100968.63
2023-01-27T23:58:06.674Z,100961.97
